createdAt,value
2017-11-16T00:00:41.190Z,9.29
2017-11-16T00:01:41.765Z,9.28
2017-11-16T00:02:42.339Z,9.34
2017-11-16T00:03:42.909Z,9.26
2017-11-16T00:04:43.483Z,9.25
2017-11-16T00:05:44.057Z,9.29
2017-11-16T00:06:44.630Z,9.26
2017-11-16T00:07:45.215Z,9.29
2017-11-16T00:08:45.788Z,9.26
2017-11-16T00:09:46.359Z,9.32
2017-11-16T00:10:46.933Z,9.21
2017-11-16T00:11:47.507Z,9.28
2017-11-16T00:12:48.080Z,9.23
2017-11-16T00:13:48.662Z,9.22
2017-11-16T00:14:49.223Z,9.32
2017-11-16T00:15:49.794Z,9.22
2017-11-16T00:16:50.379Z,9.22
2017-11-16T00:17:50.941Z,9.25
2017-11-16T00:18:51.512Z,9.29
2017-11-16T00:19:52.085Z,9.29
2017-11-16T00:20:52.658Z,9.29
2017-11-16T00:21:53.243Z,9.21
2017-11-16T00:22:53.815Z,9.26
2017-11-16T00:23:54.387Z,9.21
2017-11-16T00:24:54.979Z,9.25
2017-11-16T00:25:55.547Z,9.28
2017-11-16T00:26:56.121Z,9.29
2017-11-16T00:27:56.693Z,9.22
2017-11-16T00:28:57.264Z,9.25
2017-11-16T00:29:57.836Z,9.21
2017-11-16T00:30:58.409Z,9.25
2017-11-16T00:31:58.982Z,9.31
2017-11-16T00:32:59.554Z,9.25
2017-11-16T00:34:00.157Z,9.26
2017-11-16T00:35:00.728Z,9.19
2017-11-16T00:36:01.301Z,9.31
2017-11-16T00:37:01.871Z,9.28
2017-11-16T00:38:02.443Z,9.23
2017-11-16T00:39:03.015Z,9.31
2017-11-16T00:40:03.585Z,9.19
2017-11-16T00:41:04.156Z,9.25
2017-11-16T00:42:04.728Z,9.16
2017-11-16T00:43:05.301Z,9.18
2017-11-16T00:44:05.872Z,9.19
2017-11-16T00:45:06.457Z,9.16
2017-11-16T00:46:07.032Z,9.16
2017-11-16T00:47:07.616Z,9.14
2017-11-16T00:48:08.203Z,9.10
2017-11-16T00:49:08.774Z,9.23
2017-11-16T00:50:09.346Z,9.19
2017-11-16T00:51:09.920Z,9.14
2017-11-16T00:52:10.510Z,9.06
2017-11-16T00:53:11.072Z,9.08
2017-11-16T00:54:11.645Z,9.08
2017-11-16T00:55:12.216Z,9.10
2017-11-16T00:56:12.787Z,9.08
2017-11-16T00:57:13.361Z,9.10
2017-11-16T00:58:13.934Z,9.06
2017-11-16T00:59:14.505Z,9.02
2017-11-16T01:00:15.076Z,9.14
2017-11-16T01:01:15.648Z,9.06
2017-11-16T01:02:16.220Z,9.06
2017-11-16T01:03:16.794Z,9.03
2017-11-16T01:04:17.365Z,9.00
2017-11-16T01:05:17.938Z,9.11
2017-11-16T01:06:18.508Z,9.06
2017-11-16T01:07:19.080Z,9.08
2017-11-16T01:08:19.654Z,9.04
2017-11-16T01:09:20.242Z,9.13
2017-11-16T01:10:20.815Z,9.10
2017-11-16T01:11:21.402Z,9.11
2017-11-16T01:12:21.988Z,9.10
2017-11-16T01:13:22.560Z,9.14
2017-11-16T01:14:23.149Z,9.04
2017-11-16T01:15:23.719Z,9.19
2017-11-16T01:16:24.292Z,9.13
2017-11-16T01:17:24.865Z,9.10
2017-11-16T01:18:25.437Z,9.04
2017-11-16T01:19:26.017Z,9.16
2017-11-16T01:20:26.580Z,9.21
2017-11-16T01:21:27.154Z,9.22
2017-11-16T01:22:27.724Z,9.14
2017-11-16T01:23:28.299Z,9.22
2017-11-16T01:24:28.870Z,9.16
2017-11-16T01:25:29.443Z,9.18
2017-11-16T01:26:30.017Z,9.22
2017-11-16T01:27:30.589Z,9.21
2017-11-16T01:28:31.161Z,9.28
2017-11-16T01:29:31.733Z,9.19
2017-11-16T01:30:32.305Z,9.14
2017-11-16T01:31:32.880Z,9.21
2017-11-16T01:32:33.451Z,9.19
2017-11-16T01:33:34.027Z,9.16
2017-11-16T01:34:34.610Z,9.18
2017-11-16T01:35:35.183Z,9.19
2017-11-16T01:36:35.755Z,9.16
2017-11-16T01:37:36.326Z,9.19
2017-11-16T01:38:36.899Z,9.14
2017-11-16T01:39:37.476Z,9.16
2017-11-16T01:40:38.043Z,9.18
2017-11-16T01:41:38.618Z,9.19
2017-11-16T01:42:39.191Z,9.16
2017-11-16T01:43:39.762Z,9.18
2017-11-16T01:44:40.337Z,9.14
2017-11-16T01:45:40.907Z,9.21
2017-11-16T01:46:41.481Z,9.18
2017-11-16T01:47:42.052Z,9.16
2017-11-16T01:48:42.624Z,9.21
2017-11-16T01:49:43.210Z,9.16
2017-11-16T01:50:43.781Z,9.19
2017-11-16T01:51:44.367Z,9.19
2017-11-16T01:52:44.951Z,9.13
2017-11-16T01:53:45.523Z,9.06
2017-11-16T01:54:46.094Z,9.11
2017-11-16T01:55:46.665Z,9.16
2017-11-16T01:56:47.235Z,9.11
2017-11-16T01:57:47.808Z,9.16
2017-11-16T01:58:48.383Z,9.19
2017-11-16T01:59:48.954Z,9.22
2017-11-16T02:00:49.526Z,9.21
2017-11-16T02:01:50.097Z,9.19
2017-11-16T02:02:50.670Z,9.11
2017-11-16T02:03:51.242Z,9.19
2017-11-16T02:04:51.829Z,9.18
2017-11-16T02:05:52.401Z,9.10
2017-11-16T02:06:52.974Z,9.13
2017-11-16T02:07:53.547Z,9.13
2017-11-16T02:08:54.118Z,9.10
2017-11-16T02:09:54.688Z,9.06
2017-11-16T02:10:55.261Z,9.10
2017-11-16T02:11:55.834Z,9.08
2017-11-16T02:12:56.406Z,9.10
2017-11-16T02:13:56.978Z,9.22
2017-11-16T02:14:57.549Z,9.16
2017-11-16T02:15:58.122Z,9.16
2017-11-16T02:16:58.696Z,9.04
2017-11-16T02:17:59.268Z,9.08
2017-11-16T02:18:59.844Z,9.23
2017-11-16T02:20:00.428Z,9.10
2017-11-16T02:21:01.015Z,9.14
2017-11-16T02:22:01.587Z,9.11
2017-11-16T02:23:02.157Z,9.16
2017-11-16T02:24:02.729Z,9.11
2017-11-16T02:25:03.300Z,9.14
2017-11-16T02:26:03.874Z,9.11
2017-11-16T02:27:04.450Z,9.18
2017-11-16T02:28:05.019Z,9.22
2017-11-16T02:29:05.592Z,9.21
2017-11-16T02:30:06.163Z,9.21
2017-11-16T02:31:06.738Z,9.23
2017-11-16T02:32:07.310Z,9.11
2017-11-16T02:33:07.896Z,9.19
2017-11-16T02:34:08.471Z,9.08
2017-11-16T02:35:09.058Z,9.10
2017-11-16T02:36:09.628Z,9.18
2017-11-16T02:37:10.199Z,9.13
2017-11-16T02:38:10.774Z,9.16
2017-11-16T02:39:11.342Z,9.19
2017-11-16T02:40:11.917Z,9.16
2017-11-16T02:41:12.502Z,9.19
2017-11-16T02:42:13.076Z,9.08
2017-11-16T02:43:13.648Z,9.23
2017-11-16T02:44:14.222Z,9.16
2017-11-16T02:45:14.797Z,9.13
2017-11-16T02:46:15.365Z,9.10
2017-11-16T02:47:15.936Z,9.10
2017-11-16T02:48:16.510Z,9.18
2017-11-16T02:49:17.084Z,9.13
2017-11-16T02:50:17.655Z,9.19
2017-11-16T02:51:18.226Z,9.14
2017-11-16T02:52:18.810Z,9.04
2017-11-16T02:53:19.375Z,9.19
2017-11-16T02:54:19.947Z,9.16
2017-11-16T02:55:20.518Z,9.21
2017-11-16T02:56:21.092Z,9.06
2017-11-16T02:57:21.663Z,9.18
2017-11-16T02:58:22.237Z,9.14
2017-11-16T02:59:22.808Z,9.10
2017-11-16T03:00:23.379Z,9.10
2017-11-16T03:01:23.953Z,9.06
2017-11-16T03:02:24.525Z,9.13
2017-11-16T03:03:25.112Z,9.10
2017-11-16T03:04:25.686Z,9.08
2017-11-16T03:05:26.256Z,9.04
2017-11-16T03:06:26.828Z,9.08
2017-11-16T03:07:27.400Z,9.16
2017-11-16T03:08:27.978Z,9.04
2017-11-16T03:09:28.547Z,9.06
2017-11-16T03:10:29.118Z,9.11
2017-11-16T03:11:29.689Z,9.19
2017-11-16T03:12:30.260Z,9.08
2017-11-16T03:13:30.834Z,9.10
2017-11-16T03:14:31.406Z,9.08
2017-11-16T03:15:31.978Z,9.10
2017-11-16T03:16:32.550Z,9.04
2017-11-16T03:17:33.121Z,9.08
2017-11-16T03:18:33.696Z,9.08
2017-11-16T03:19:34.276Z,9.11
2017-11-16T03:20:34.888Z,9.11
2017-11-16T03:21:35.424Z,9.11
2017-11-16T03:22:36.008Z,9.08
2017-11-16T03:23:36.581Z,9.13
2017-11-16T03:24:37.163Z,9.08
2017-11-16T03:25:37.729Z,9.10
2017-11-16T03:26:38.298Z,9.06
2017-11-16T03:27:38.869Z,9.06
2017-11-16T03:28:39.439Z,9.13
2017-11-16T03:29:40.013Z,9.11
2017-11-16T03:30:40.587Z,9.02
2017-11-16T03:31:41.160Z,9.06
2017-11-16T03:32:41.729Z,9.14
2017-11-16T03:33:42.299Z,9.14
2017-11-16T03:34:42.872Z,9.04
2017-11-16T03:35:43.447Z,9.11
2017-11-16T03:36:44.017Z,9.13
2017-11-16T03:37:44.590Z,9.06
2017-11-16T03:38:45.161Z,9.13
2017-11-16T03:39:45.735Z,9.18
2017-11-16T03:40:46.308Z,9.16
2017-11-16T03:41:46.881Z,9.16
2017-11-16T03:42:47.452Z,9.16
2017-11-16T03:43:48.024Z,9.19
2017-11-16T03:44:48.596Z,9.19
2017-11-16T03:45:49.182Z,9.18
2017-11-16T03:46:49.756Z,9.19
2017-11-16T03:47:50.329Z,9.11
2017-11-16T03:48:50.901Z,9.16
2017-11-16T03:49:51.487Z,9.21
2017-11-16T03:50:52.057Z,9.18
2017-11-16T03:51:52.630Z,9.19
2017-11-16T03:52:53.201Z,9.19
2017-11-16T03:53:53.775Z,9.22
2017-11-16T03:54:54.347Z,9.25
2017-11-16T03:55:54.919Z,9.22
2017-11-16T03:56:55.491Z,9.18
2017-11-16T03:57:56.063Z,9.16
2017-11-16T03:58:56.642Z,9.23
2017-11-16T03:59:57.211Z,9.21
2017-11-16T04:00:57.784Z,9.11
2017-11-16T04:01:58.356Z,9.11
2017-11-16T04:02:58.927Z,9.18
2017-11-16T04:03:59.500Z,9.18
2017-11-16T04:05:00.073Z,9.14
2017-11-16T04:06:00.644Z,9.18
2017-11-16T04:07:01.217Z,9.16
2017-11-16T04:08:01.788Z,9.06
2017-11-16T04:09:02.359Z,9.19
2017-11-16T04:10:02.933Z,9.14
2017-11-16T04:11:03.545Z,9.10
2017-11-16T04:12:04.083Z,9.06
2017-11-16T04:13:04.650Z,9.06
2017-11-16T04:14:05.223Z,9.11
2017-11-16T04:15:05.796Z,9.08
2017-11-16T04:16:06.375Z,9.26
2017-11-16T04:17:06.954Z,9.13
2017-11-16T04:18:07.527Z,9.21
2017-11-16T04:19:08.098Z,9.16
2017-11-16T04:20:08.671Z,9.18
2017-11-16T04:21:09.244Z,9.10
2017-11-16T04:22:09.818Z,9.04
2017-11-16T04:23:10.392Z,9.19
2017-11-16T04:24:10.963Z,9.19
2017-11-16T04:25:11.534Z,9.26
2017-11-16T04:26:12.120Z,9.16
2017-11-16T04:27:12.693Z,9.23
2017-11-16T04:28:13.263Z,9.08
2017-11-16T04:29:13.837Z,9.10
2017-11-16T04:30:14.409Z,9.14
2017-11-16T04:31:14.983Z,9.06
2017-11-16T04:32:15.563Z,9.08
2017-11-16T04:33:16.127Z,9.03
2017-11-16T04:34:16.701Z,9.06
2017-11-16T04:35:17.272Z,9.08
2017-11-16T04:36:17.845Z,9.02
2017-11-16T04:37:18.426Z,9.13
2017-11-16T04:38:18.990Z,9.08
2017-11-16T04:39:19.561Z,9.03
2017-11-16T04:40:20.133Z,9.10
2017-11-16T04:41:20.713Z,9.02
2017-11-16T04:42:21.280Z,9.08
2017-11-16T04:43:21.861Z,9.10
2017-11-16T04:44:22.425Z,9.04
2017-11-16T04:45:23.002Z,9.06
2017-11-16T04:46:23.584Z,9.03
2017-11-16T04:47:24.158Z,9.03
2017-11-16T04:48:24.736Z,9.08
2017-11-16T04:49:25.317Z,9.04
2017-11-16T04:50:25.890Z,9.08
2017-11-16T04:51:26.462Z,9.08
2017-11-16T04:52:27.033Z,9.06
2017-11-16T04:53:27.603Z,9.08
2017-11-16T04:54:28.173Z,9.11
2017-11-16T04:55:28.745Z,9.08
2017-11-16T04:56:29.318Z,9.10
2017-11-16T04:57:29.905Z,9.10
2017-11-16T04:58:30.480Z,9.18
2017-11-16T04:59:31.052Z,9.16
2017-11-16T05:00:31.624Z,9.18
2017-11-16T05:01:32.194Z,9.14
2017-11-16T05:02:32.769Z,9.11
2017-11-16T05:03:33.340Z,9.06
2017-11-16T05:04:33.912Z,9.06
2017-11-16T05:05:34.484Z,9.02
2017-11-16T05:06:35.057Z,9.00
2017-11-16T05:07:35.627Z,9.04
2017-11-16T05:08:36.201Z,9.11
2017-11-16T05:09:36.770Z,9.10
2017-11-16T05:10:37.343Z,9.02
2017-11-16T05:11:37.914Z,9.04
2017-11-16T05:12:38.501Z,9.08
2017-11-16T05:13:39.086Z,9.16
2017-11-16T05:14:39.663Z,9.10
2017-11-16T05:15:40.231Z,9.04
2017-11-16T05:16:40.817Z,9.04
2017-11-16T05:17:41.389Z,9.06
2017-11-16T05:18:41.961Z,9.13
2017-11-16T05:19:42.533Z,9.02
2017-11-16T05:20:43.103Z,9.11
2017-11-16T05:21:43.677Z,9.02
2017-11-16T05:22:44.262Z,9.08
2017-11-16T05:23:44.836Z,9.06
2017-11-16T05:24:45.408Z,9.04
2017-11-16T05:25:45.981Z,9.08
2017-11-16T05:26:46.567Z,9.02
2017-11-16T05:27:47.137Z,9.10
2017-11-16T05:28:47.709Z,9.10
2017-11-16T05:29:48.280Z,9.04
2017-11-16T05:30:48.854Z,9.02
2017-11-16T05:31:49.426Z,9.04
2017-11-16T05:32:49.997Z,9.04
2017-11-16T05:33:50.569Z,9.03
2017-11-16T05:34:51.155Z,9.04
2017-11-16T05:35:51.727Z,9.03
2017-11-16T05:36:52.303Z,8.94
2017-11-16T05:37:52.885Z,9.04
2017-11-16T05:38:53.473Z,9.04
2017-11-16T05:39:54.043Z,8.94
2017-11-16T05:40:54.616Z,8.91
2017-11-16T05:41:55.187Z,9.10
2017-11-16T05:42:55.760Z,8.99
2017-11-16T05:43:56.346Z,9.04
2017-11-16T05:44:56.918Z,9.06
2017-11-16T05:45:57.491Z,8.97
2017-11-16T05:46:58.066Z,9.04
2017-11-16T05:47:58.636Z,9.18
2017-11-16T05:48:59.208Z,9.10
2017-11-16T05:49:59.778Z,9.03
2017-11-16T05:51:00.350Z,9.03
2017-11-16T05:52:00.933Z,9.04
2017-11-16T05:53:01.505Z,9.08
2017-11-16T05:54:02.091Z,8.92
2017-11-16T05:55:02.665Z,8.95
2017-11-16T05:56:03.237Z,8.94
2017-11-16T05:57:03.809Z,8.91
2017-11-16T05:58:04.379Z,8.88
2017-11-16T05:59:04.952Z,8.97
2017-11-16T06:00:05.523Z,9.02
2017-11-16T06:01:06.193Z,8.99
2017-11-16T06:02:06.764Z,9.08
2017-11-16T06:03:07.336Z,9.02
2017-11-16T06:04:07.914Z,9.04
2017-11-16T06:05:08.481Z,8.97
2017-11-16T06:06:09.054Z,8.97
2017-11-16T06:07:09.627Z,9.11
2017-11-16T06:08:10.198Z,8.95
2017-11-16T06:09:10.785Z,8.91
2017-11-16T06:10:11.356Z,8.99
2017-11-16T06:11:11.927Z,9.08
2017-11-16T06:12:12.500Z,9.04
2017-11-16T06:13:13.072Z,8.99
2017-11-16T06:14:13.644Z,8.88
2017-11-16T06:15:14.230Z,8.95
2017-11-16T06:16:14.801Z,8.92
2017-11-16T06:17:15.373Z,8.92
2017-11-16T06:18:15.945Z,8.94
2017-11-16T06:19:16.516Z,9.00
2017-11-16T06:20:17.091Z,8.95
2017-11-16T06:21:17.662Z,8.95
2017-11-16T06:22:18.234Z,8.95
2017-11-16T06:23:18.805Z,8.99
2017-11-16T06:24:19.377Z,8.95
2017-11-16T06:25:19.962Z,9.00
2017-11-16T06:26:20.535Z,8.92
2017-11-16T06:27:21.104Z,8.92
2017-11-16T06:28:21.678Z,8.92
2017-11-16T06:29:22.250Z,9.06
2017-11-16T06:30:22.822Z,8.95
2017-11-16T06:31:23.393Z,8.99
2017-11-16T06:32:23.967Z,8.87
2017-11-16T06:33:24.539Z,8.94
2017-11-16T06:34:25.132Z,8.95
2017-11-16T06:35:25.702Z,8.94
2017-11-16T06:36:26.272Z,8.92
2017-11-16T06:37:26.843Z,8.94
2017-11-16T06:38:27.415Z,9.03
2017-11-16T06:39:27.993Z,8.95
2017-11-16T06:40:28.559Z,8.94
2017-11-16T06:41:29.133Z,8.95
2017-11-16T06:42:29.704Z,9.04
2017-11-16T06:43:30.274Z,9.08
2017-11-16T06:44:30.845Z,8.94
2017-11-16T06:45:31.417Z,8.94
2017-11-16T06:46:32.011Z,8.95
2017-11-16T06:47:32.574Z,8.95
2017-11-16T06:48:33.147Z,8.88
2017-11-16T06:49:33.721Z,8.95
2017-11-16T06:50:34.291Z,8.94
2017-11-16T06:51:34.866Z,8.95
2017-11-16T06:52:35.438Z,8.91
2017-11-16T06:53:36.010Z,8.87
2017-11-16T06:54:36.583Z,8.92
2017-11-16T06:55:37.155Z,8.89
2017-11-16T06:56:37.729Z,8.85
2017-11-16T06:57:38.300Z,8.94
2017-11-16T06:58:38.878Z,8.87
2017-11-16T06:59:39.446Z,8.91
2017-11-16T07:00:40.018Z,8.95
2017-11-16T07:01:40.590Z,8.91
2017-11-16T07:02:41.178Z,8.84
2017-11-16T07:03:41.743Z,8.89
2017-11-16T07:04:42.308Z,8.84
2017-11-16T07:05:42.895Z,8.82
2017-11-16T07:06:43.472Z,8.87
2017-11-16T07:07:44.047Z,8.87
2017-11-16T07:08:44.612Z,8.79
2017-11-16T07:09:45.187Z,8.88
2017-11-16T07:10:45.767Z,8.89
2017-11-16T07:11:46.334Z,8.73
2017-11-16T07:12:46.924Z,8.82
2017-11-16T07:13:47.495Z,8.67
2017-11-16T07:14:48.068Z,8.74
2017-11-16T07:15:48.642Z,8.78
2017-11-16T07:16:49.218Z,8.63
2017-11-16T07:17:49.788Z,8.69
2017-11-16T07:18:50.362Z,8.67
2017-11-16T07:19:50.936Z,8.69
2017-11-16T07:20:51.507Z,8.61
2017-11-16T07:21:52.084Z,8.64
2017-11-16T07:22:52.654Z,8.61
2017-11-16T07:23:53.229Z,8.63
2017-11-16T07:24:53.804Z,8.60
2017-11-16T07:25:54.391Z,8.61
2017-11-16T07:26:54.962Z,8.61
2017-11-16T07:27:55.536Z,8.67
2017-11-16T07:28:56.108Z,8.70
2017-11-16T07:29:56.682Z,8.73
2017-11-16T07:30:57.257Z,8.88
2017-11-16T07:31:57.830Z,8.87
2017-11-16T07:32:58.404Z,8.71
2017-11-16T07:33:58.981Z,8.71
2017-11-16T07:34:59.549Z,8.73
2017-11-16T07:36:00.123Z,8.84
2017-11-16T07:37:00.696Z,8.74
2017-11-16T07:38:01.269Z,8.81
2017-11-16T07:39:01.847Z,8.73
2017-11-16T07:40:02.420Z,8.70
2017-11-16T07:41:03.007Z,8.71
2017-11-16T07:42:03.580Z,8.76
2017-11-16T07:43:04.156Z,8.78
2017-11-16T07:44:04.735Z,8.81
2017-11-16T07:45:05.298Z,8.82
2017-11-16T07:46:05.872Z,8.79
2017-11-16T07:47:06.453Z,8.88
2017-11-16T07:48:07.033Z,8.87
2017-11-16T07:49:07.607Z,8.99
2017-11-16T07:50:08.181Z,8.95
2017-11-16T07:51:08.753Z,8.91
2017-11-16T07:52:09.339Z,8.89
2017-11-16T07:53:09.913Z,8.97
2017-11-16T07:54:10.488Z,9.06
2017-11-16T07:55:11.062Z,8.95
2017-11-16T07:56:11.634Z,8.97
2017-11-16T07:57:12.208Z,8.94
2017-11-16T07:58:12.791Z,9.02
2017-11-16T07:59:13.373Z,9.10
2017-11-16T08:00:13.946Z,8.97
2017-11-16T08:01:14.531Z,8.87
2017-11-16T08:02:15.106Z,8.91
2017-11-16T08:03:15.679Z,8.99
2017-11-16T08:04:16.252Z,9.10
2017-11-16T08:05:16.827Z,9.08
2017-11-16T08:06:17.400Z,9.02
2017-11-16T08:07:17.974Z,9.08
2017-11-16T08:08:18.545Z,9.04
2017-11-16T08:09:19.120Z,8.97
2017-11-16T08:10:19.693Z,9.03
2017-11-16T08:11:20.298Z,9.04
2017-11-16T08:12:20.853Z,9.03
2017-11-16T08:13:21.427Z,9.04
2017-11-16T08:14:22.003Z,8.99
2017-11-16T08:15:22.573Z,8.95
2017-11-16T08:16:23.148Z,9.00
2017-11-16T08:17:23.720Z,8.94
2017-11-16T08:18:24.295Z,8.99
2017-11-16T08:19:24.880Z,8.97
2017-11-16T08:20:25.454Z,9.00
2017-11-16T08:21:26.030Z,9.10
2017-11-16T08:22:26.605Z,9.06
2017-11-16T08:23:27.176Z,9.08
2017-11-16T08:24:27.752Z,8.94
2017-11-16T08:25:28.328Z,9.13
2017-11-16T08:26:28.902Z,8.95
2017-11-16T08:27:29.477Z,8.92
2017-11-16T08:28:30.052Z,8.95
2017-11-16T08:29:30.627Z,9.04
2017-11-16T08:30:31.202Z,9.11
2017-11-16T08:31:31.776Z,8.94
2017-11-16T08:32:32.349Z,8.87
2017-11-16T08:33:32.924Z,9.04
2017-11-16T08:34:33.500Z,9.10
2017-11-16T08:35:34.073Z,9.18
2017-11-16T08:36:34.647Z,9.14
2017-11-16T08:37:35.221Z,9.08
2017-11-16T08:38:35.795Z,9.04
2017-11-16T08:39:36.371Z,9.03
2017-11-16T08:40:36.944Z,9.08
2017-11-16T08:41:37.527Z,9.00
2017-11-16T08:42:38.093Z,9.10
2017-11-16T08:43:38.668Z,9.10
2017-11-16T08:44:39.242Z,9.06
2017-11-16T08:45:39.831Z,9.03
2017-11-16T08:46:40.408Z,9.02
2017-11-16T08:47:41.031Z,8.92
2017-11-16T08:48:41.606Z,9.02
2017-11-16T08:49:42.181Z,9.04
2017-11-16T08:50:42.755Z,9.03
2017-11-16T08:51:43.331Z,9.11
2017-11-16T08:52:43.914Z,9.14
2017-11-16T08:53:44.497Z,9.11
2017-11-16T08:54:45.069Z,9.21
2017-11-16T08:55:45.643Z,9.06
2017-11-16T08:56:46.230Z,9.10
2017-11-16T08:57:46.805Z,9.11
2017-11-16T08:58:47.381Z,9.10
2017-11-16T08:59:47.969Z,9.10
2017-11-16T09:00:48.539Z,9.02
2017-11-16T09:01:49.113Z,9.14
2017-11-16T09:02:49.687Z,9.06
2017-11-16T09:03:50.265Z,9.04
2017-11-16T09:04:50.836Z,9.04
2017-11-16T09:05:51.409Z,9.08
2017-11-16T09:06:51.985Z,9.19
2017-11-16T09:07:52.558Z,9.08
2017-11-16T09:08:53.131Z,9.04
2017-11-16T09:09:53.715Z,9.06
2017-11-16T09:10:54.280Z,9.19
2017-11-16T09:11:54.868Z,9.14
2017-11-16T09:12:55.444Z,9.14
2017-11-16T09:13:56.033Z,9.22
2017-11-16T09:14:56.607Z,9.29
2017-11-16T09:15:57.178Z,9.26
2017-11-16T09:16:57.755Z,9.19
2017-11-16T09:17:58.332Z,9.21
2017-11-16T09:18:58.901Z,9.18
2017-11-16T09:19:59.475Z,9.23
2017-11-16T09:21:00.050Z,9.26
2017-11-16T09:22:00.624Z,9.28
2017-11-16T09:23:01.298Z,9.21
2017-11-16T09:24:01.871Z,9.36
2017-11-16T09:25:02.446Z,9.19
2017-11-16T09:26:03.020Z,9.18
2017-11-16T09:27:03.595Z,9.29
2017-11-16T09:28:04.181Z,9.36
2017-11-16T09:29:04.755Z,9.19
2017-11-16T09:30:05.342Z,9.22
2017-11-16T09:31:05.929Z,9.26
2017-11-16T09:32:06.502Z,9.32
2017-11-16T09:33:07.076Z,9.36
2017-11-16T09:34:07.650Z,9.39
2017-11-16T09:35:08.225Z,9.25
2017-11-16T09:36:08.800Z,9.23
2017-11-16T09:37:09.388Z,9.31
2017-11-16T09:38:09.964Z,9.21
2017-11-16T09:39:10.553Z,9.29
2017-11-16T09:40:11.129Z,9.31
2017-11-16T09:41:11.703Z,9.23
2017-11-16T09:42:12.279Z,9.34
2017-11-16T09:43:12.854Z,9.21
2017-11-16T09:44:13.448Z,9.26
2017-11-16T09:45:14.021Z,9.26
2017-11-16T09:46:14.597Z,9.25
2017-11-16T09:47:15.172Z,9.21
2017-11-16T09:48:15.747Z,9.25
2017-11-16T09:49:16.322Z,9.25
2017-11-16T09:50:16.915Z,9.18
2017-11-16T09:51:17.474Z,9.31
2017-11-16T09:52:18.049Z,9.31
2017-11-16T09:53:18.626Z,9.25
2017-11-16T09:54:19.207Z,9.36
2017-11-16T09:55:19.775Z,9.51
2017-11-16T09:56:20.356Z,9.61
2017-11-16T09:57:20.935Z,9.47
2017-11-16T09:58:21.502Z,9.59
2017-11-16T09:59:22.079Z,9.62
2017-11-16T10:00:22.656Z,9.65
2017-11-16T10:01:23.232Z,9.64
2017-11-16T10:02:23.810Z,9.46
2017-11-16T10:03:24.384Z,9.50
2017-11-16T10:04:24.961Z,9.51
2017-11-16T10:05:25.535Z,9.64
2017-11-16T10:06:26.108Z,9.66
2017-11-16T10:07:26.698Z,9.61
2017-11-16T10:08:27.272Z,9.51
2017-11-16T10:09:27.848Z,9.44
2017-11-16T10:10:28.425Z,9.61
2017-11-16T10:11:29.015Z,9.55
2017-11-16T10:12:29.589Z,9.59
2017-11-16T10:13:30.166Z,9.58
2017-11-16T10:14:30.741Z,9.46
2017-11-16T10:15:31.323Z,9.58
2017-11-16T10:16:31.893Z,9.54
2017-11-16T10:17:32.469Z,9.58
2017-11-16T10:18:33.059Z,9.56
2017-11-16T10:19:33.638Z,9.59
2017-11-16T10:20:34.212Z,9.66
2017-11-16T10:21:34.798Z,9.80
2017-11-16T10:22:35.366Z,9.86
2017-11-16T10:23:35.943Z,9.94
2017-11-16T10:24:36.520Z,9.86
2017-11-16T10:25:37.094Z,9.80
2017-11-16T10:26:37.669Z,9.84
2017-11-16T10:27:38.244Z,9.92
2017-11-16T10:28:38.821Z,9.94
2017-11-16T10:29:39.398Z,10.01
2017-11-16T10:30:39.974Z,10.07
2017-11-16T10:31:40.553Z,10.01
2017-11-16T10:32:41.129Z,10.04
2017-11-16T10:33:41.708Z,10.02
2017-11-16T10:34:42.285Z,10.17
2017-11-16T10:35:42.862Z,10.15
2017-11-16T10:36:43.440Z,10.13
2017-11-16T10:37:44.019Z,10.17
2017-11-16T10:38:44.595Z,10.19
2017-11-16T10:39:45.177Z,10.20
2017-11-16T10:40:45.746Z,10.20
2017-11-16T10:41:46.336Z,10.16
2017-11-16T10:42:46.915Z,10.23
2017-11-16T10:43:47.490Z,9.99
2017-11-16T10:44:48.066Z,9.95
2017-11-16T10:45:48.643Z,9.89
2017-11-16T10:46:49.220Z,9.61
2017-11-16T10:47:49.807Z,9.62
2017-11-16T10:48:50.374Z,9.64
2017-11-16T10:49:50.948Z,9.69
2017-11-16T10:50:51.537Z,9.76
2017-11-16T10:51:52.112Z,9.91
2017-11-16T10:52:52.690Z,9.72
2017-11-16T10:53:53.265Z,9.72
2017-11-16T10:54:53.840Z,9.65
2017-11-16T10:55:54.418Z,9.79
2017-11-16T10:56:54.992Z,9.97
2017-11-16T10:57:55.567Z,9.95
2017-11-16T10:58:56.143Z,9.91
2017-11-16T10:59:56.732Z,9.86
2017-11-16T11:00:57.306Z,9.95
2017-11-16T11:01:57.883Z,10.19
2017-11-16T11:02:58.473Z,10.20
2017-11-16T11:03:59.052Z,10.37
2017-11-16T11:04:59.629Z,10.51
2017-11-16T11:06:00.207Z,10.19
2017-11-16T11:07:00.785Z,10.16
2017-11-16T11:08:01.363Z,10.23
2017-11-16T11:09:01.939Z,10.13
2017-11-16T11:10:02.516Z,10.19
2017-11-16T11:11:03.093Z,10.17
2017-11-16T11:12:03.684Z,10.12
2017-11-16T11:13:04.278Z,9.98
2017-11-16T11:14:04.853Z,10.05
2017-11-16T11:15:05.455Z,10.05
2017-11-16T11:16:06.021Z,10.17
2017-11-16T11:17:06.609Z,10.26
2017-11-16T11:18:07.188Z,10.26
2017-11-16T11:19:07.764Z,10.30
2017-11-16T11:20:08.340Z,10.38
2017-11-16T11:21:08.921Z,10.37
2017-11-16T11:22:09.494Z,10.38
2017-11-16T11:23:10.087Z,10.38
2017-11-16T11:24:10.650Z,10.42
2017-11-16T11:25:11.244Z,10.38
2017-11-16T11:26:11.820Z,10.40
2017-11-16T11:27:12.397Z,10.38
2017-11-16T11:28:12.975Z,10.38
2017-11-16T11:29:13.553Z,10.25
2017-11-16T11:30:14.132Z,10.33
2017-11-16T11:31:14.706Z,10.44
2017-11-16T11:32:15.285Z,10.38
2017-11-16T11:33:15.865Z,10.41
2017-11-16T11:34:16.451Z,10.46
2017-11-16T11:35:17.030Z,10.54
2017-11-16T11:36:17.608Z,10.51
2017-11-16T11:37:18.184Z,10.53
2017-11-16T11:38:18.760Z,10.53
2017-11-16T11:39:19.338Z,10.53
2017-11-16T11:40:19.915Z,10.41
2017-11-16T11:41:20.495Z,10.19
2017-11-16T11:42:21.086Z,10.38
2017-11-16T11:43:21.662Z,10.40
2017-11-16T11:44:22.253Z,10.20
2017-11-16T11:45:22.844Z,10.16
2017-11-16T11:46:23.423Z,10.22
2017-11-16T11:47:23.998Z,10.28
2017-11-16T11:48:24.576Z,10.20
2017-11-16T11:49:25.155Z,10.23
2017-11-16T11:50:25.732Z,10.34
2017-11-16T11:51:26.309Z,10.40
2017-11-16T11:52:26.888Z,10.48
2017-11-16T11:53:27.464Z,10.42
2017-11-16T11:54:28.042Z,10.42
2017-11-16T11:55:28.620Z,10.40
2017-11-16T11:56:29.199Z,10.38
2017-11-16T11:57:29.776Z,10.49
2017-11-16T11:58:30.359Z,10.48
2017-11-16T11:59:30.932Z,10.40
2017-11-16T12:00:31.507Z,10.54
2017-11-16T12:01:32.084Z,10.38
2017-11-16T12:02:32.664Z,10.40
2017-11-16T12:03:33.241Z,10.04
2017-11-16T12:04:33.819Z,10.13
2017-11-16T12:05:34.397Z,10.17
2017-11-16T12:06:34.976Z,10.13
2017-11-16T12:07:35.553Z,10.10
2017-11-16T12:08:36.129Z,10.12
2017-11-16T12:09:36.706Z,10.28
2017-11-16T12:10:37.285Z,10.53
2017-11-16T12:11:37.860Z,10.44
2017-11-16T12:12:38.439Z,10.38
2017-11-16T12:13:39.016Z,10.22
2017-11-16T12:14:39.595Z,10.37
2017-11-16T12:15:40.172Z,10.48
2017-11-16T12:16:40.762Z,10.49
2017-11-16T12:17:41.341Z,10.40
2017-11-16T12:18:41.917Z,10.22
2017-11-16T12:19:42.495Z,10.07
2017-11-16T12:20:43.072Z,10.16
2017-11-16T12:21:43.648Z,10.16
2017-11-16T12:22:44.225Z,10.16
2017-11-16T12:23:44.805Z,10.20
2017-11-16T12:24:45.385Z,10.10
2017-11-16T12:25:45.958Z,10.17
2017-11-16T12:26:46.552Z,10.16
2017-11-16T12:27:47.129Z,10.20
2017-11-16T12:28:47.705Z,10.35
2017-11-16T12:29:48.297Z,10.40
2017-11-16T12:30:48.874Z,10.15
2017-11-16T12:31:49.469Z,10.25
2017-11-16T12:32:50.053Z,10.26
2017-11-16T12:33:50.625Z,10.30
2017-11-16T12:34:51.204Z,10.25
2017-11-16T12:35:51.788Z,10.37
2017-11-16T12:36:52.358Z,10.42
2017-11-16T12:37:52.934Z,10.48
2017-11-16T12:38:53.525Z,10.54
2017-11-16T12:39:54.103Z,10.67
2017-11-16T12:40:54.680Z,10.56
2017-11-16T12:41:55.258Z,10.56
2017-11-16T12:42:55.834Z,10.41
2017-11-16T12:43:56.432Z,10.41
2017-11-16T12:44:57.017Z,10.40
2017-11-16T12:45:57.596Z,10.40
2017-11-16T12:46:58.175Z,10.49
2017-11-16T12:47:58.751Z,10.41
2017-11-16T12:48:59.338Z,10.56
2017-11-16T12:49:59.906Z,10.59
2017-11-16T12:51:00.485Z,10.60
2017-11-16T12:52:01.066Z,10.57
2017-11-16T12:53:01.638Z,10.41
2017-11-16T12:54:02.217Z,10.56
2017-11-16T12:55:02.799Z,10.64
2017-11-16T12:56:03.373Z,10.63
2017-11-16T12:57:03.963Z,10.67
2017-11-16T12:58:04.540Z,10.54
2017-11-16T12:59:05.116Z,10.60
2017-11-16T13:00:05.695Z,10.57
2017-11-16T13:01:06.287Z,10.60
2017-11-16T13:02:06.862Z,10.57
2017-11-16T13:03:07.441Z,10.57
2017-11-16T13:04:08.023Z,10.72
2017-11-16T13:05:08.593Z,10.57
2017-11-16T13:06:09.171Z,10.60
2017-11-16T13:07:09.745Z,10.53
2017-11-16T13:08:10.322Z,10.40
2017-11-16T13:09:10.900Z,10.41
2017-11-16T13:10:11.473Z,10.41
2017-11-16T13:11:12.050Z,10.37
2017-11-16T13:12:12.626Z,10.42
2017-11-16T13:13:13.210Z,10.38
2017-11-16T13:14:13.777Z,10.40
2017-11-16T13:15:14.354Z,10.38
2017-11-16T13:16:14.929Z,10.28
2017-11-16T13:17:15.505Z,10.16
2017-11-16T13:18:16.080Z,10.35
2017-11-16T13:19:16.657Z,10.34
2017-11-16T13:20:17.248Z,10.33
2017-11-16T13:21:17.841Z,10.38